Time;durP1;ratioP1;P1;durP2;ratioP2;P2;SDS_P1;SDS_P2;PMS_P1;PMS_P2;Temp;Humidity;BMP_temperature;BMP_pressure;BME280_temperature;BME280_humidity;BME280_pressure;Samples;Min_cycle;Max_cycle;Signal;HPM_P1;HPM_P2
2022/03/20 00:00:53;;;;;;;14.55;3.30;;;7.00;92.00;;;;;;5071808;28;20119;-51
2022/03/20 00:03:20;;;;;;;6.97;3.15;;;7.00;92.30;;;;;;5071926;28;20431;-51
2022/03/20 00:05:48;;;;;;;9.10;3.05;;;6.90;92.50;;;;;;5070377;28;20052;-51
2022/03/20 00:08:14;;;;;;;9.50;3.20;;;6.90;92.70;;;;;;5071716;28;20059;-51
2022/03/20 00:10:46;;;;;;;7.03;3.08;;;6.90;92.90;;;;;;5071648;28;20017;-51
2022/03/20 00:13:15;;;;;;;6.75;2.88;;;6.90;93.20;;;;;;5071315;28;20857;-51
2022/03/20 00:15:41;;;;;;;8.50;2.78;;;6.90;93.30;;;;;;5071211;28;20474;-51
2022/03/20 00:18:11;;;;;;;9.18;3.10;;;6.90;93.60;;;;;;5071499;28;20047;-51
2022/03/20 00:20:54;;;;;;;6.57;2.85;;;6.80;93.80;;;;;;5071203;28;20024;-51
2022/03/20 00:23:22;;;;;;;15.30;3.50;;;6.80;94.00;;;;;;5071527;28;20024;-51
2022/03/20 00:25:48;;;;;;;9.38;3.13;;;6.80;94.30;;;;;;5071002;28;20059;-51
2022/03/20 00:28:17;;;;;;;8.80;2.58;;;6.70;94.50;;;;;;5071427;28;20059;-51
2022/03/20 00:30:43;;;;;;;9.32;2.78;;;6.70;94.70;;;;;;5071227;28;20048;-51
2022/03/20 00:33:09;;;;;;;10.73;3.75;;;6.60;95.00;;;;;;5071166;28;20032;-51
2022/03/20 00:35:35;;;;;;;13.18;3.80;;;6.60;95.20;;;;;;5070959;28;20174;-51
2022/03/20 00:38:01;;;;;;;9.20;2.97;;;6.60;95.50;;;;;;5071334;28;20489;-51
2022/03/20 00:40:29;;;;;;;8.48;3.35;;;6.60;95.70;;;;;;5086429;28;20098;-51
2022/03/20 00:42:55;;;;;;;11.13;3.30;;;6.50;95.90;;;;;;5071007;28;20095;-51
2022/03/20 00:45:21;;;;;;;7.38;3.33;;;6.60;96.00;;;;;;5070736;28;20159;-51
2022/03/20 00:47:48;;;;;;;6.53;3.20;;;6.60;96.10;;;;;;5070813;28;20025;-51
2022/03/20 00:50:14;;;;;;;8.85;3.47;;;6.50;96.50;;;;;;5071013;28;20401;-51
2022/03/20 00:52:39;;;;;;;11.15;3.45;;;6.50;96.80;;;;;;5070263;28;20508;-51
2022/03/20 00:55:05;;;;;;;6.80;3.35;;;6.40;97.50;;;;;;5070997;28;20016;-51
2022/03/20 00:57:31;;;;;;;8.32;3.10;;;6.30;97.30;;;;;;5071005;28;20070;-51
2022/03/20 00:59:57;;;;;;;14.60;3.90;;;6.30;97.60;;;;;;5071147;28;20496;-51
2022/03/20 01:02:23;;;;;;;13.27;3.85;;;6.40;97.70;;;;;;5070499;28;20036;-51
2022/03/20 01:04:48;;;;;;;9.23;3.97;;;6.30;97.90;;;;;;5070803;28;20040;-51
2022/03/20 01:07:14;;;;;;;6.60;3.17;;;6.40;98.10;;;;;;5070415;28;20044;-51
2022/03/20 01:09:40;;;;;;;7.18;3.92;;;6.30;98.30;;;;;;5071286;28;20032;-51
2022/03/20 01:12:08;;;;;;;10.27;3.97;;;6.40;98.40;;;;;;5070328;28;20569;-51
2022/03/20 01:14:34;;;;;;;10.50;3.97;;;6.30;98.60;;;;;;5070485;28;20020;-52
2022/03/20 01:17:00;;;;;;;11.65;4.45;;;6.30;98.80;;;;;;5070974;28;20393;-50
2022/03/20 01:19:26;;;;;;;9.52;4.72;;;6.30;99.00;;;;;;5070208;28;20063;-50
2022/03/20 01:21:53;;;;;;;14.57;5.10;;;6.30;99.40;;;;;;5070937;28;20068;-50
2022/03/20 01:24:19;;;;;;;9.43;5.10;;;6.30;99.50;;;;;;5071311;28;20477;-50
2022/03/20 01:26:45;;;;;;;9.30;5.00;;;6.20;99.60;;;;;;5070565;28;20112;-50
2022/03/20 01:29:11;;;;;;;15.18;5.55;;;6.20;99.90;;;;;;5070441;28;20035;-50
2022/03/20 01:31:38;;;;;;;13.88;6.13;;;6.20;99.90;;;;;;5070574;28;20021;-50
2022/03/20 01:34:04;;;;;;;12.85;6.15;;;6.10;99.90;;;;;;5070870;28;20017;-50
2022/03/20 01:36:30;;;;;;;10.25;6.05;;;6.10;99.90;;;;;;5070919;28;20047;-50
2022/03/20 01:38:56;;;;;;;10.32;6.18;;;6.10;99.90;;;;;;5071113;28;20021;-50
2022/03/20 01:41:23;;;;;;;11.57;6.50;;;6.00;99.90;;;;;;5070186;28;20032;-50
2022/03/20 01:43:57;;;;;;;11.70;6.65;;;6.10;99.90;;;;;;5070775;28;20166;-50
2022/03/20 01:46:26;;;;;;;12.55;6.65;;;6.00;99.90;;;;;;5070206;28;20578;-50
2022/03/20 01:48:52;;;;;;;14.10;6.70;;;6.00;99.90;;;;;;5070317;28;20631;-50
2022/03/20 01:52:10;;;;;;;14.02;6.90;;;5.90;99.90;;;;;;5070657;28;20021;-50
2022/03/20 01:54:10;;;;;;;11.85;6.20;;;5.90;99.90;;;;;;5070085;28;20074;-50
2022/03/20 01:56:38;;;;;;;10.77;6.93;;;5.90;99.90;;;;;;5070012;28;20100;-51
2022/03/20 01:59:03;;;;;;;12.05;6.90;;;5.90;99.90;;;;;;5070388;28;20032;-50
2022/03/20 02:01:30;;;;;;;13.85;6.82;;;5.90;99.90;;;;;;5070043;28;20112;-50
2022/03/20 02:03:56;;;;;;;11.15;6.32;;;5.80;99.90;;;;;;5070799;28;20386;-50
2022/03/20 02:06:22;;;;;;;11.60;7.03;;;5.80;99.90;;;;;;5073707;28;20028;-50
2022/03/20 02:08:49;;;;;;;12.43;5.82;;;5.80;99.90;;;;;;5074113;28;20534;-50
2022/03/20 02:11:15;;;;;;;13.98;6.78;;;5.70;99.90;;;;;;5074939;28;20031;-50
2022/03/20 02:13:40;;;;;;;12.70;6.18;;;5.70;99.90;;;;;;5074438;28;20478;-50
2022/03/20 02:16:06;;;;;;;14.38;6.43;;;5.70;99.90;;;;;;5074118;28;20484;-50
2022/03/20 02:18:32;;;;;;;11.35;6.28;;;5.70;99.90;;;;;;5074044;28;20032;-50
2022/03/20 02:21:02;;;;;;;13.43;6.43;;;5.70;99.90;;;;;;5073661;28;20032;-50
2022/03/20 02:23:28;;;;;;;12.18;6.65;;;5.70;99.90;;;;;;5073991;28;20032;-50
2022/03/20 02:25:54;;;;;;;12.73;6.32;;;5.60;99.90;;;;;;5073716;28;20021;-50
2022/03/20 02:28:19;;;;;;;13.63;6.00;;;5.60;99.90;;;;;;5073886;28;20041;-50
2022/03/20 02:30:46;;;;;;;10.35;6.22;;;5.60;99.90;;;;;;5073703;28;20350;-50
2022/03/20 02:33:12;;;;;;;14.93;6.50;;;5.60;99.90;;;;;;5073373;28;20489;-50
2022/03/20 02:35:39;;;;;;;14.68;6.75;;;5.70;99.90;;;;;;5073815;28;20067;-50
2022/03/20 02:38:10;;;;;;;12.40;6.80;;;5.70;99.90;;;;;;5073673;28;20423;-50
2022/03/20 02:40:36;;;;;;;15.23;6.72;;;5.60;99.90;;;;;;5073205;28;20054;-50
2022/03/20 02:43:05;;;;;;;11.40;6.13;;;5.60;99.90;;;;;;5073715;28;20031;-50
2022/03/20 02:45:31;;;;;;;10.63;5.82;;;5.50;99.90;;;;;;5073612;28;20165;-50
2022/03/20 02:47:58;;;;;;;13.43;6.40;;;5.50;99.90;;;;;;5073571;28;20039;-50
2022/03/20 02:50:30;;;;;;;13.85;6.55;;;5.50;99.90;;;;;;5073679;28;20389;-50
2022/03/20 02:53:04;;;;;;;13.10;6.63;;;5.50;99.90;;;;;;5073338;28;20024;-51
2022/03/20 02:55:32;;;;;;;11.80;6.60;;;5.50;99.90;;;;;;5073174;28;20024;-51
2022/03/20 02:58:01;;;;;;;13.38;7.38;;;5.50;99.90;;;;;;5073082;28;20108;-51
2022/03/20 03:00:28;;;;;;;14.55;7.68;;;5.50;99.90;;;;;;5073183;28;20474;-51
2022/03/20 03:02:56;;;;;;;13.10;7.32;;;5.50;99.90;;;;;;5072987;28;20020;-51
2022/03/20 03:05:24;;;;;;;13.75;7.70;;;5.50;99.90;;;;;;5073164;28;20021;-51
2022/03/20 03:10:56;;;;;;;14.65;7.93;;;5.40;99.90;;;;;;5072021;28;20031;-51
2022/03/20 03:13:26;;;;;;;14.93;7.78;;;5.40;99.90;;;;;;5071961;28;20020;-51
2022/03/20 03:15:53;;;;;;;12.70;7.65;;;5.40;99.90;;;;;;5071667;28;20056;-51
2022/03/20 03:18:20;;;;;;;16.15;8.05;;;5.40;99.90;;;;;;5071775;28;20561;-51
2022/03/20 03:20:47;;;;;;;14.07;7.82;;;5.40;99.90;;;;;;5071615;28;20025;-51
2022/03/20 03:23:13;;;;;;;14.60;8.07;;;5.40;99.90;;;;;;5071296;28;20028;-51
2022/03/20 03:25:40;;;;;;;13.43;7.63;;;5.40;99.90;;;;;;5071624;28;20539;-51
2022/03/20 03:28:06;;;;;;;15.38;7.72;;;5.30;99.90;;;;;;5071509;28;20025;-51
2022/03/20 03:30:33;;;;;;;15.15;8.30;;;5.30;99.90;;;;;;5071569;28;20501;-51
2022/03/20 03:32:59;;;;;;;14.48;7.70;;;5.30;99.90;;;;;;5071984;28;20377;-51
2022/03/20 03:35:44;;;;;;;16.48;8.27;;;5.30;99.90;;;;;;5070878;28;20473;-51
2022/03/20 03:38:15;;;;;;;15.70;7.82;;;5.20;99.90;;;;;;5072665;28;20047;-51
2022/03/20 03:40:44;;;;;;;15.57;8.07;;;5.20;99.90;;;;;;5072396;28;20021;-51
2022/03/20 03:43:10;;;;;;;16.13;8.63;;;5.20;99.90;;;;;;5071693;28;20024;-51
2022/03/20 03:45:39;;;;;;;12.52;8.05;;;5.30;99.90;;;;;;5071731;28;20024;-51
2022/03/20 03:48:05;;;;;;;15.50;8.70;;;5.30;99.90;;;;;;5071686;28;20028;-51
2022/03/20 03:50:31;;;;;;;17.10;9.15;;;5.20;99.90;;;;;;5071537;28;20486;-51
2022/03/20 03:52:57;;;;;;;16.55;9.40;;;5.20;99.90;;;;;;5071608;28;20040;-50
2022/03/20 03:55:22;;;;;;;19.45;9.48;;;5.20;99.90;;;;;;5071797;28;20432;-51
2022/03/20 03:57:50;;;;;;;16.17;8.80;;;5.20;99.90;;;;;;5071616;28;20525;-51
2022/03/20 04:00:17;;;;;;;21.90;8.85;;;5.20;99.90;;;;;;5072368;28;20430;-51
2022/03/20 04:02:43;;;;;;;14.27;8.73;;;5.20;99.90;;;;;;5071645;28;20108;-51
2022/03/20 04:05:09;;;;;;;16.23;9.02;;;5.10;99.90;;;;;;5071352;28;20533;-51
2022/03/20 04:07:35;;;;;;;16.20;9.30;;;5.10;99.90;;;;;;5025102;28;1353133;-51
2022/03/20 04:10:03;;;;;;;16.92;8.85;;;5.10;99.90;;;;;;5072555;28;20504;-50
2022/03/20 04:12:29;;;;;;;17.80;9.43;;;5.10;99.90;;;;;;5073232;28;20461;-51
2022/03/20 04:14:57;;;;;;;17.08;9.05;;;5.10;99.90;;;;;;5072603;28;20112;-51
2022/03/20 04:17:23;;;;;;;14.10;8.77;;;5.10;99.90;;;;;;5088166;28;20031;-50
2022/03/20 04:19:48;;;;;;;19.85;10.35;;;5.10;99.90;;;;;;5072775;28;20020;-50
2022/03/20 04:22:14;;;;;;;15.65;10.32;;;5.20;99.90;;;;;;5072695;28;20039;-50
2022/03/20 04:24:40;;;;;;;17.00;10.57;;;5.30;99.90;;;;;;5072276;28;20107;-50
2022/03/20 04:27:05;;;;;;;16.73;10.43;;;5.30;99.90;;;;;;5071535;28;20082;-50
2022/03/20 04:29:32;;;;;;;20.85;10.63;;;5.40;99.90;;;;;;5071991;28;20082;-50
2022/03/20 04:31:57;;;;;;;19.15;10.95;;;5.40;99.90;;;;;;5072434;28;20342;-51
2022/03/20 04:34:26;;;;;;;18.77;10.93;;;5.50;99.90;;;;;;5072321;28;20135;-51
2022/03/20 04:36:53;;;;;;;18.95;10.73;;;5.50;99.90;;;;;;5073715;28;20032;-51
2022/03/20 04:39:18;;;;;;;24.20;11.38;;;5.50;99.90;;;;;;5074057;28;20088;-50
2022/03/20 04:41:46;;;;;;;19.25;12.20;;;5.60;99.90;;;;;;5073725;28;20048;-51
2022/03/20 04:44:12;;;;;;;24.80;12.52;;;5.60;99.90;;;;;;5071947;28;20036;-50
2022/03/20 04:46:40;;;;;;;20.75;13.73;;;5.50;99.90;;;;;;5070994;28;20032;-50
2022/03/20 05:00:03;;;;;;;23.63;14.80;;;5.30;99.90;;;;;;5076079;28;20413;-50
2022/03/20 05:02:28;;;;;;;25.35;16.10;;;5.30;99.90;;;;;;5070847;28;20116;-49
2022/03/20 05:04:54;;;;;;;25.70;15.57;;;5.30;99.90;;;;;;5070475;28;20064;-49
2022/03/20 05:07:20;;;;;;;24.45;15.95;;;5.20;99.90;;;;;;5070738;28;20416;-49
2022/03/20 05:15:14;;;;;;;26.60;16.58;;;5.10;99.90;;;;;;5070750;28;20055;-49
2022/03/20 05:17:40;;;;;;;28.15;17.08;;;5.10;99.90;;;;;;5070837;28;20544;-49
2022/03/20 05:20:06;;;;;;;30.52;16.13;;;5.20;99.90;;;;;;5070870;28;20103;-49
2022/03/20 05:22:36;;;;;;;24.30;16.33;;;5.20;99.90;;;;;;5070629;28;20032;-49
2022/03/20 05:25:05;;;;;;;28.20;16.98;;;5.10;99.90;;;;;;5070265;28;20032;-49
2022/03/20 05:27:30;;;;;;;27.65;16.83;;;5.10;99.90;;;;;;5070260;28;20067;-49
2022/03/20 05:29:56;;;;;;;27.95;17.70;;;5.20;99.90;;;;;;5070384;28;20048;-49
2022/03/20 05:32:23;;;;;;;26.15;17.42;;;5.20;99.90;;;;;;5070328;28;20021;-49
2022/03/20 05:34:48;;;;;;;25.60;17.48;;;5.20;99.90;;;;;;5070360;28;20048;-49
2022/03/20 05:37:14;;;;;;;27.23;17.42;;;5.30;99.90;;;;;;5070240;28;20024;-49
2022/03/20 05:39:40;;;;;;;31.83;18.27;;;5.30;99.90;;;;;;5069975;28;20112;-49
2022/03/20 05:42:06;;;;;;;27.30;16.35;;;5.30;99.90;;;;;;5070149;28;20477;-49
2022/03/20 05:44:33;;;;;;;26.77;18.10;;;5.30;99.90;;;;;;5070017;28;20224;-49
2022/03/20 05:47:00;;;;;;;28.55;17.70;;;5.30;99.90;;;;;;5070471;28;20032;-49
2022/03/20 05:49:26;;;;;;;31.40;17.30;;;5.30;99.90;;;;;;5069815;28;20021;-49
2022/03/20 05:51:54;;;;;;;26.95;17.88;;;5.30;99.90;;;;;;5069934;28;20017;-49
2022/03/20 05:54:19;;;;;;;28.50;19.25;;;5.40;99.90;;;;;;5069805;28;20017;-49
2022/03/20 05:59:29;;;;;;;30.23;18.73;;;5.50;99.90;;;;;;5070292;28;20417;-49
2022/03/20 06:01:55;;;;;;;28.58;18.85;;;5.40;99.90;;;;;;5069897;28;20025;-49
2022/03/20 06:04:21;;;;;;;35.35;20.67;;;5.40;99.90;;;;;;5069883;28;20028;-49
2022/03/20 06:06:48;;;;;;;33.08;19.08;;;5.40;99.90;;;;;;5070054;28;20462;-49
2022/03/20 06:09:15;;;;;;;28.92;19.13;;;5.40;99.90;;;;;;5070556;28;20077;-50
2022/03/20 06:11:41;;;;;;;31.08;19.52;;;5.50;99.90;;;;;;5070009;28;20029;-49
2022/03/20 06:14:08;;;;;;;32.60;19.67;;;5.60;99.90;;;;;;5069529;28;20113;-49
2022/03/20 06:16:34;;;;;;;32.05;20.23;;;5.60;99.90;;;;;;5069683;28;20029;-49
2022/03/20 06:19:01;;;;;;;28.95;19.88;;;5.50;99.90;;;;;;5069968;28;20024;-49
2022/03/20 06:21:26;;;;;;;29.67;18.35;;;5.40;99.90;;;;;;5069810;28;20397;-49
2022/03/20 06:23:54;;;;;;;32.53;20.27;;;5.50;99.90;;;;;;5070034;28;20037;-49
2022/03/20 06:26:20;;;;;;;31.80;19.30;;;5.70;99.90;;;;;;5069975;28;20032;-50
2022/03/20 06:28:46;;;;;;;27.73;18.45;;;5.60;99.90;;;;;;5070510;28;20074;-50
2022/03/20 06:31:13;;;;;;;29.08;20.02;;;5.60;99.90;;;;;;5070022;28;20055;-50
2022/03/20 06:33:40;;;;;;;29.13;19.00;;;5.70;99.90;;;;;;5069388;28;20032;-51
2022/03/20 06:36:07;;;;;;;30.77;19.60;;;5.80;99.90;;;;;;5069885;28;20052;-51
2022/03/20 06:38:36;;;;;;;36.28;21.63;;;5.90;99.90;;;;;;5070148;28;20078;-51
2022/03/20 06:41:09;;;;;;;34.70;20.70;;;6.00;99.90;;;;;;5071264;28;20036;-51
2022/03/20 06:43:35;;;;;;;;;;;5.90;99.90;;;;;;5070345;28;20025;-51
2022/03/20 06:46:02;;;;;;;31.92;19.88;;;5.80;99.90;;;;;;5069357;28;19966;-51
2022/03/20 06:48:28;;;;;;;32.60;21.17;;;5.60;99.90;;;;;;5070645;28;20031;-51
2022/03/20 06:50:53;;;;;;;35.05;21.23;;;5.60;99.90;;;;;;5072799;28;20021;-51
2022/03/20 06:53:19;;;;;;;37.22;21.70;;;5.50;99.90;;;;;;5072332;28;20033;-50
2022/03/20 06:55:46;;;;;;;38.38;22.42;;;5.50;99.90;;;;;;5073659;28;20023;-50
2022/03/20 06:58:13;;;;;;;39.28;23.02;;;5.40;99.90;;;;;;5073770;28;20032;-50
2022/03/20 07:00:40;;;;;;;33.97;22.38;;;5.40;99.90;;;;;;5073764;28;20111;-50
2022/03/20 07:03:08;;;;;;;35.55;22.25;;;5.60;99.90;;;;;;5073032;28;20099;-50
2022/03/20 07:05:37;;;;;;;38.80;23.00;;;5.60;99.90;;;;;;5073461;28;20021;-50
2022/03/20 07:08:04;;;;;;;31.33;22.38;;;5.60;99.90;;;;;;5073685;28;20110;-51
2022/03/20 07:10:30;;;;;;;34.75;22.63;;;5.50;99.90;;;;;;5073758;28;20033;-51
2022/03/20 07:15:49;;;;;;;38.28;23.83;;;5.50;99.90;;;;;;5073131;28;20035;-51
2022/03/20 07:18:17;;;;;;;32.78;22.02;;;5.50;99.90;;;;;;5073567;28;20097;-51
2022/03/20 07:20:44;;;;;;;37.10;24.48;;;5.60;99.90;;;;;;5073126;28;20035;-51
2022/03/20 07:23:11;;;;;;;37.00;23.92;;;5.60;99.90;;;;;;5073499;28;20078;-51
2022/03/20 07:31:07;;;;;;;36.50;25.00;;;5.40;99.90;;;;;;5072507;28;20027;-50
2022/03/20 07:33:33;;;;;;;39.47;23.73;;;5.50;99.90;;;;;;5072563;28;20478;-50
2022/03/20 07:35:59;;;;;;;40.88;26.88;;;5.30;99.90;;;;;;5072372;28;20104;-50
2022/03/20 07:38:26;;;;;;;42.63;28.13;;;5.10;99.90;;;;;;5072738;28;20021;-50
2022/03/20 07:40:52;;;;;;;42.50;29.30;;;5.00;99.90;;;;;;5072347;28;20111;-50
2022/03/20 07:43:17;;;;;;;45.65;29.98;;;4.80;99.90;;;;;;5072345;28;20091;-50
2022/03/20 07:45:44;;;;;;;46.83;27.95;;;4.70;99.90;;;;;;5072873;28;20547;-50
2022/03/20 07:48:10;;;;;;;50.17;32.55;;;4.70;99.90;;;;;;5072330;28;20028;-50
2022/03/20 07:50:36;;;;;;;46.03;31.80;;;4.60;99.90;;;;;;5072355;28;20398;-50
2022/03/20 07:53:01;;;;;;;52.90;31.40;;;4.50;99.90;;;;;;5072012;28;20505;-50
2022/03/20 07:55:28;;;;;;;53.00;32.78;;;4.60;99.90;;;;;;5071960;28;20020;-50
2022/03/20 07:57:55;;;;;;;53.80;32.40;;;4.60;99.90;;;;;;5072154;28;20496;-50
2022/03/20 08:00:22;;;;;;;56.42;35.67;;;4.50;99.90;;;;;;5072126;28;20531;-50
2022/03/20 08:02:48;;;;;;;56.92;35.78;;;4.30;99.90;;;;;;5071200;28;20041;-50
2022/03/20 08:05:14;;;;;;;58.45;35.47;;;4.20;99.90;;;;;;5072170;28;20086;-50
2022/03/20 08:07:40;;;;;;;57.45;35.83;;;4.10;99.90;;;;;;5072064;28;20044;-50
2022/03/20 08:10:10;;;;;;;59.30;36.47;;;4.20;99.90;;;;;;5072025;28;20478;-50
2022/03/20 08:12:37;;;;;;;59.45;36.08;;;4.40;99.90;;;;;;5072281;28;20521;-50
2022/03/20 08:15:04;;;;;;;53.13;34.95;;;4.50;99.90;;;;;;5087406;28;20028;-51
2022/03/20 08:17:30;;;;;;;57.13;36.58;;;4.60;99.90;;;;;;5071854;28;20036;-51
2022/03/20 08:19:56;;;;;;;53.55;33.63;;;4.70;99.90;;;;;;5071862;28;20024;-52
2022/03/20 08:22:22;;;;;;;50.60;33.97;;;4.80;99.90;;;;;;5072121;28;20119;-52
2022/03/20 08:24:48;;;;;;;50.42;32.67;;;4.70;99.90;;;;;;5071878;28;20452;-52
2022/03/20 08:27:14;;;;;;;51.70;33.50;;;4.80;99.90;;;;;;5071543;28;20025;-52
2022/03/20 08:29:40;;;;;;;51.08;33.75;;;4.90;99.90;;;;;;5071020;28;20029;-52
2022/03/20 08:32:07;;;;;;;57.15;37.28;;;4.80;99.90;;;;;;5071987;28;20051;-52
2022/03/20 08:34:32;;;;;;;68.57;41.33;;;4.80;99.90;;;;;;5071613;28;20115;-51
2022/03/20 08:36:58;;;;;;;79.03;49.45;;;4.80;99.90;;;;;;5071667;28;20524;-51
2022/03/20 08:39:24;;;;;;;69.60;46.28;;;4.70;99.90;;;;;;5071372;28;20035;-51
2022/03/20 08:41:49;;;;;;;72.30;47.80;;;4.80;99.90;;;;;;5071240;28;20035;-51
2022/03/20 08:44:15;;;;;;;64.45;46.08;;;5.00;99.90;;;;;;5070164;28;20394;-51
2022/03/20 08:46:41;;;;;;;58.42;41.30;;;5.30;99.90;;;;;;5071451;28;20037;-51
2022/03/20 08:49:07;;;;;;;57.40;39.60;;;5.70;99.90;;;;;;5071472;28;20044;-51
2022/03/20 08:51:34;;;;;;;57.63;40.38;;;6.10;99.90;;;;;;5071253;28;20149;-51
2022/03/20 08:54:01;;;;;;;59.90;39.45;;;6.40;99.90;;;;;;5071527;28;20048;-51
2022/03/20 08:56:27;;;;;;;59.75;41.55;;;6.30;99.90;;;;;;5071619;28;20428;-52
2022/03/20 08:58:53;;;;;;;63.42;44.53;;;6.10;99.90;;;;;;5072170;28;20393;-51
2022/03/20 09:01:19;;;;;;;61.55;43.47;;;5.90;99.90;;;;;;5072470;28;20020;-51
2022/03/20 09:03:49;;;;;;;60.25;41.55;;;5.90;99.90;;;;;;5071395;28;20028;-51
2022/03/20 09:06:24;;;;;;;58.83;39.88;;;6.00;99.90;;;;;;5071791;28;20037;-51
2022/03/20 09:08:50;;;;;;;57.10;38.72;;;6.00;99.90;;;;;;5072180;28;20044;-51
2022/03/20 09:11:18;;;;;;;67.40;45.55;;;5.90;99.90;;;;;;5072179;28;20465;-52
2022/03/20 09:13:44;;;;;;;62.03;42.50;;;5.70;99.90;;;;;;5071674;28;20036;-52
2022/03/20 09:18:59;;;;;;;60.85;40.88;;;5.70;99.90;;;;;;5071949;28;20588;-51
2022/03/20 09:21:33;;;;;;;58.58;39.92;;;5.70;99.90;;;;;;5073284;28;20051;-51
2022/03/20 09:24:00;;;;;;;61.17;40.17;;;5.70;99.90;;;;;;5072464;28;20021;-51
2022/03/20 09:26:26;;;;;;;61.42;41.17;;;5.90;99.90;;;;;;5071327;28;20017;-51
2022/03/20 09:28:52;;;;;;;56.83;39.83;;;6.00;99.90;;;;;;5072743;28;20506;-51
2022/03/20 09:31:19;;;;;;;59.80;41.67;;;6.30;99.90;;;;;;5071907;28;20095;-51
2022/03/20 09:33:45;;;;;;;55.33;37.75;;;6.60;99.90;;;;;;5071059;28;20044;-51
2022/03/20 09:36:11;;;;;;;50.03;34.88;;;6.80;99.90;;;;;;5069407;28;20501;-51
2022/03/20 09:38:37;;;;;;;45.95;31.83;;;7.50;99.90;;;;;;5071052;28;20048;-53
2022/03/20 09:41:08;;;;;;;43.95;32.83;;;8.30;99.90;;;;;;5071230;28;20064;-52
2022/03/20 09:43:36;;;;;;;46.33;31.85;;;9.10;99.90;;;;;;5070629;28;20031;-52
2022/03/20 09:46:02;;;;;;;39.70;31.13;;;9.20;99.90;;;;;;5069951;28;20028;-52
2022/03/20 09:48:29;;;;;;;38.92;28.90;;;9.10;99.90;;;;;;5070462;28;20029;-52
2022/03/20 09:50:57;;;;;;;36.95;28.77;;;9.50;99.90;;;;;;5070303;28;20032;-52
2022/03/20 09:53:23;;;;;;;37.58;28.90;;;9.40;99.90;;;;;;5070469;28;20107;-52
2022/03/20 09:55:49;;;;;;;36.70;28.55;;;9.40;99.90;;;;;;5070174;28;20021;-52
2022/03/20 09:58:18;;;;;;;34.20;27.98;;;10.30;99.90;;;;;;5070548;28;20051;-52
2022/03/20 10:00:44;;;;;;;36.83;27.98;;;11.00;99.90;;;;;;5070566;28;20025;-52
2022/03/20 10:03:20;;;;;;;34.72;27.08;;;10.90;99.90;;;;;;5070177;28;20354;-52
2022/03/20 10:06:05;;;;;;;34.63;27.60;;;10.80;99.90;;;;;;5070860;28;20025;-54
2022/03/20 10:08:31;;;;;;;34.40;27.27;;;10.60;99.90;;;;;;5070553;28;20052;-53
2022/03/20 10:11:17;;;;;;;35.28;27.42;;;10.70;99.90;;;;;;5070329;28;20583;-53
2022/03/20 10:14:05;;;;;;;33.90;26.58;;;10.90;99.90;;;;;;5069658;28;20025;-53
2022/03/20 10:16:31;;;;;;;36.15;27.98;;;10.80;99.90;;;;;;5070067;28;20048;-53
2022/03/20 10:18:56;;;;;;;33.10;27.02;;;11.50;99.90;;;;;;5069908;28;20040;-53
2022/03/20 10:21:45;;;;;;;33.97;26.48;;;12.50;99.90;;;;;;5069739;28;20381;-54
2022/03/20 10:24:15;;;;;;;30.48;25.35;;;12.40;99.90;;;;;;5069590;28;20071;-53
2022/03/20 10:26:41;;;;;;;35.17;26.70;;;12.30;99.90;;;;;;5073086;28;20024;-54
2022/03/20 10:29:16;;;;;;;33.63;26.17;;;12.50;99.90;;;;;;5073408;28;20020;-53
2022/03/20 10:31:53;;;;;;;32.28;25.55;;;12.50;99.90;;;;;;5073422;28;20429;-53
2022/03/20 10:34:20;;;;;;;32.15;26.45;;;12.50;99.90;;;;;;5073938;28;20051;-53
2022/03/20 10:36:48;;;;;;;31.02;25.58;;;12.70;99.90;;;;;;5074280;28;20125;-52
2022/03/20 10:39:19;;;;;;;33.08;26.98;;;11.80;99.90;;;;;;5074693;28;20025;-53
2022/03/20 10:41:54;;;;;;;33.00;26.35;;;11.10;99.90;;;;;;5074344;28;20033;-53
2022/03/20 10:44:25;;;;;;;36.00;28.58;;;11.40;99.90;;;;;;5074181;28;20020;-52
2022/03/20 10:47:09;;;;;;;34.45;29.17;;;11.00;99.90;;;;;;5073796;28;20036;-51
2022/03/20 10:49:35;;;;;;;37.60;29.38;;;10.30;99.90;;;;;;5073564;28;20032;-51
2022/03/20 10:52:23;;;;;;;39.53;30.33;;;9.80;99.90;;;;;;5073537;28;20017;-51
2022/03/20 10:54:53;;;;;;;37.92;29.52;;;9.80;99.90;;;;;;5074058;28;20016;-51
2022/03/20 10:57:21;;;;;;;39.28;30.55;;;9.70;99.90;;;;;;5073502;28;20039;-51
2022/03/20 11:00:07;;;;;;;43.03;31.65;;;9.60;99.90;;;;;;5073943;28;20494;-51
2022/03/20 11:02:37;;;;;;;40.40;30.95;;;9.20;99.90;;;;;;5073384;28;20402;-51
2022/03/20 11:05:03;;;;;;;40.72;31.13;;;9.30;99.90;;;;;;5073785;28;20036;-51
2022/03/20 11:07:30;;;;;;;40.97;31.33;;;9.40;99.90;;;;;;5073750;28;20048;-51
2022/03/20 11:09:56;;;;;;;40.22;31.85;;;9.40;99.90;;;;;;5073825;28;20059;-51
2022/03/20 11:12:33;;;;;;;42.95;32.20;;;8.90;99.90;;;;;;5074853;28;20418;-51
2022/03/20 11:15:04;;;;;;;42.45;32.42;;;8.60;99.90;;;;;;5073806;28;20024;-51
2022/03/20 11:17:44;;;;;;;44.05;33.22;;;8.60;99.90;;;;;;5073415;28;20043;-51
2022/03/20 11:20:15;;;;;;;41.88;31.20;;;9.00;99.90;;;;;;5074184;28;20029;-51
2022/03/20 11:22:49;;;;;;;44.60;33.53;;;9.10;99.90;;;;;;5073396;28;20024;-51
2022/03/20 11:25:22;;;;;;;47.08;35.05;;;8.60;99.90;;;;;;5072600;28;20108;-51
2022/03/20 11:27:55;;;;;;;45.35;33.55;;;8.70;99.90;;;;;;5071189;28;20028;-51
2022/03/20 11:30:27;;;;;;;46.50;32.30;;;8.60;99.90;;;;;;5072514;28;20032;-51
2022/03/20 11:32:56;;;;;;;48.65;34.33;;;8.30;99.90;;;;;;5072328;28;20116;-50
2022/03/20 11:35:27;;;;;;;48.97;35.47;;;7.90;99.90;;;;;;5072344;28;20344;-50
2022/03/20 11:37:55;;;;;;;49.55;36.83;;;7.80;99.90;;;;;;5072631;28;20020;-50
2022/03/20 11:40:22;;;;;;;49.50;35.90;;;7.80;99.90;;;;;;5072652;28;20071;-50
2022/03/20 11:43:11;;;;;;;50.63;36.65;;;8.00;99.90;;;;;;5072036;28;20025;-51
2022/03/20 11:45:37;;;;;;;47.13;36.25;;;8.50;99.90;;;;;;5071896;28;20111;-51
2022/03/20 11:48:16;;;;;;;44.70;34.65;;;9.10;99.90;;;;;;5072040;28;20024;-51
2022/03/20 11:50:44;;;;;;;43.53;32.08;;;9.70;99.90;;;;;;5073261;28;20058;-51
2022/03/20 11:53:10;;;;;;;39.78;29.85;;;10.20;99.90;;;;;;5072609;28;20593;-51
2022/03/20 11:55:38;;;;;;;41.20;30.80;;;10.70;99.90;;;;;;5072239;28;20493;-51
2022/03/20 11:58:34;;;;;;;40.45;31.95;;;10.90;99.90;;;;;;5072240;28;20047;-51
2022/03/20 12:01:05;;;;;;;38.97;31.58;;;10.70;99.90;;;;;;5072607;28;20029;-51
2022/03/20 12:03:48;;;;;;;43.20;31.65;;;10.50;99.90;;;;;;5072514;28;20236;-51
2022/03/20 12:06:39;;;;;;;38.92;31.63;;;11.30;99.90;;;;;;5072406;28;20024;-51
2022/03/20 12:09:21;;;;;;;41.58;32.50;;;11.00;99.90;;;;;;5073162;28;20048;-51
2022/03/20 12:12:21;;;;;;;42.45;32.10;;;11.10;99.90;;;;;;5088594;28;20063;-51
2022/03/20 12:14:53;;;;;;;44.45;33.00;;;11.20;99.90;;;;;;5072558;28;20159;-51
2022/03/20 12:17:19;;;;;;;42.95;33.97;;;10.70;99.90;;;;;;5072703;28;20031;-51
2022/03/20 12:19:53;;;;;;;41.00;32.85;;;10.60;99.90;;;;;;5071366;28;20020;-51
2022/03/20 12:22:19;;;;;;;45.70;33.70;;;10.20;99.90;;;;;;5071385;28;20103;-51
2022/03/20 12:24:58;;;;;;;48.28;35.33;;;9.90;99.90;;;;;;5071283;28;20546;-51
2022/03/20 12:27:24;;;;;;;48.30;33.92;;;9.60;99.90;;;;;;5071331;28;20363;-51
2022/03/20 12:30:02;;;;;;;46.25;34.33;;;9.50;99.90;;;;;;5071774;28;20027;-51
2022/03/20 12:32:46;;;;;;;46.58;35.58;;;9.20;99.90;;;;;;5073498;28;20028;-51
2022/03/20 12:35:12;;;;;;;48.70;35.35;;;8.90;99.90;;;;;;5074306;28;20059;-51
2022/03/20 12:37:40;;;;;;;52.10;36.78;;;8.90;99.90;;;;;;5074553;28;20086;-55
2022/03/20 12:40:08;;;;;;;50.53;35.75;;;8.70;99.90;;;;;;5075914;28;20028;-51
2022/03/20 12:42:37;;;;;;;48.25;34.53;;;8.90;99.90;;;;;;5072687;28;20028;-50
2022/03/20 12:45:05;;;;;;;48.63;36.80;;;8.60;99.90;;;;;;5072304;28;20217;-50
2022/03/20 12:47:32;;;;;;;48.03;36.60;;;8.40;99.90;;;;;;5071156;28;20021;-51
2022/03/20 12:50:02;;;;;;;53.33;37.45;;;8.30;99.90;;;;;;5071135;28;20049;-50
2022/03/20 12:52:31;;;;;;;52.38;38.45;;;8.20;99.90;;;;;;5070812;28;20017;-50
2022/03/20 12:55:02;;;;;;;60.00;41.40;;;8.20;99.90;;;;;;5071023;28;20028;-50
2022/03/20 12:57:39;;;;;;;54.58;40.00;;;8.30;99.90;;;;;;5071138;28;20063;-50
2022/03/20 13:00:16;;;;;;;56.53;38.53;;;8.10;99.90;;;;;;5071371;28;20123;-50
2022/03/20 13:03:10;;;;;;;55.20;39.40;;;8.00;99.90;;;;;;5071003;28;20036;-50
2022/03/20 13:05:48;;;;;;;52.10;38.30;;;8.00;99.90;;;;;;5071107;28;20587;-50
2022/03/20 13:08:26;;;;;;;50.40;37.88;;;8.10;99.90;;;;;;5070618;28;20040;-50
2022/03/20 13:10:55;;;;;;;51.65;37.90;;;8.00;99.90;;;;;;5070532;28;20025;-50
2022/03/20 13:13:30;;;;;;;54.38;37.30;;;7.90;99.90;;;;;;5070990;28;20539;-50
2022/03/20 13:15:56;;;;;;;52.22;37.53;;;8.00;99.90;;;;;;5070606;28;20055;-51
2022/03/20 13:18:26;;;;;;;58.70;39.08;;;7.80;99.90;;;;;;5070715;28;20407;-50
2022/03/20 13:20:53;;;;;;;56.50;37.30;;;7.60;99.90;;;;;;5070347;28;20023;-50